INFORMAÇÕES DO AERODROMO
Icao Aerodromo SKLC Nome do Aerodromo Antonio Roldan Betancourt Airport Cidade Carepa
Código GPS SKLC Elevação Média 46 ft Tipo de Aerodromo Aeroporto Médio Porte

INFORMAÇÃO DE PISTA
Pista 15 Comprimento da Pista 7153 ft Largura da Pista 98 ft
Elevação da Pista 39 ft Distância de Area de Escape da Pista 0 ft Orientação da Pista 150
Pista 33 Comprimento da Pista 7153 ft Largura da Pista 98 ft
Elevação da Pista 46 ft Distância de Area de Escape da Pista 0 ft Orientação da Pista 330

FREQUÊNCIAS DO AERODROMO
Tipo RDO Nome CAREPA RDO Frequência 348.8 MHZ
Tipo TWR Nome TWR Frequência 118.7 MHZ

INFORMAÇÕES DE NAVEGAÇÃO PRÓXIMO AO AERODROMO
Tipo VOR-DME Nome Los Cedros Frequência 112600 KHZ

Informações de Meteorologia(METAR atual)
METAR DE SKLC
ADDS - METARS form results

(1648 UTC 16 October 2018)
Data provider http://aviationweather.gov/metar/data/
 
METAR text: SKLC 161600Z 13014KT 100V210 9999 4500S VCSH BKN006TCU 27/25 A2989 RMK TCU VCSH S/SW
Conditions at: SKLC (APARTADO/LOS CED, CO) observed 1600 UTC 16 October 2018
Temperature: 27.0°C (81°F)
Dewpoint: 25.0°C (77°F) [RH = 89%]
Pressure (altimeter): 29.89 inches Hg (1012.3 mb)
Winds: from the SE (130 degrees) at 16 MPH (14 knots; 7.2 m/s)
Visibility: 6 or more miles (10+ km)
Ceiling: 600 feet AGL
Clouds: broken clouds at 600 feet AGL
Weather: VCSH  (showers in vicinity)

MAPA DO AERODROMO


Desenvolvido por Virtual Airlines Manager




Modificado por Servidor Brasil Amigos